sensor_id;sensor_type;location;lat;lon;timestamp;pressure;altitude;pressure_sealevel;temperature;humidity
11672;BME280;5892;43.412;24.612;2023-01-26T00:00:08;101009.81;;;0.41;100.00
11672;BME280;5892;43.412;24.612;2023-01-26T00:02:36;101008.75;;;0.42;100.00
11672;BME280;5892;43.412;24.612;2023-01-26T00:05:03;101002.44;;;0.49;100.00
11672;BME280;5892;43.412;24.612;2023-01-26T00:07:31;101003.13;;;0.44;100.00
11672;BME280;5892;43.412;24.612;2023-01-26T00:09:58;100985.41;;;0.36;100.00
11672;BME280;5892;43.412;24.612;2023-01-26T00:12:28;100996.50;;;0.28;100.00
11672;BME280;5892;43.412;24.612;2023-01-26T00:14:55;100980.47;;;0.33;100.00
11672;BME280;5892;43.412;24.612;2023-01-26T00:17:22;100976.72;;;0.34;100.00
11672;BME280;5892;43.412;24.612;2023-01-26T00:19:53;100917.34;;;-0.07;100.00
11672;BME280;5892;43.412;24.612;2023-01-26T00:22:21;100977.97;;;0.32;100.00
11672;BME280;5892;43.412;24.612;2023-01-26T00:24:47;100978.13;;;0.37;100.00
11672;BME280;5892;43.412;24.612;2023-01-26T00:27:14;100980.16;;;0.41;100.00
11672;BME280;5892;43.412;24.612;2023-01-26T00:29:43;100985.22;;;0.50;100.00
11672;BME280;5892;43.412;24.612;2023-01-26T00:32:09;100971.69;;;0.38;100.00
11672;BME280;5892;43.412;24.612;2023-01-26T00:34:36;100964.13;;;0.47;100.00
11672;BME280;5892;43.412;24.612;2023-01-26T00:37:03;100964.13;;;0.47;100.00
11672;BME280;5892;43.412;24.612;2023-01-26T00:39:30;100958.34;;;0.43;100.00
11672;BME280;5892;43.412;24.612;2023-01-26T00:41:57;100961.03;;;0.43;100.00
11672;BME280;5892;43.412;24.612;2023-01-26T00:44:35;100956.34;;;0.38;100.00
11672;BME280;5892;43.412;24.612;2023-01-26T00:47:04;100960.53;;;0.34;100.00
11672;BME280;5892;43.412;24.612;2023-01-26T00:49:32;100950.59;;;0.35;100.00
11672;BME280;5892;43.412;24.612;2023-01-26T00:51:59;100949.75;;;0.34;100.00
11672;BME280;5892;43.412;24.612;2023-01-26T00:54:26;100912.66;;;0.18;100.00
11672;BME280;5892;43.412;24.612;2023-01-26T00:56:53;100940.75;;;0.40;100.00
11672;BME280;5892;43.412;24.612;2023-01-26T00:59:21;100943.00;;;0.43;100.00
11672;BME280;5892;43.412;24.612;2023-01-26T01:01:48;100946.28;;;0.46;100.00
11672;BME280;5892;43.412;24.612;2023-01-26T01:04:17;100940.44;;;0.49;100.00
11672;BME280;5892;43.412;24.612;2023-01-26T01:06:44;100936.09;;;0.48;100.00
11672;BME280;5892;43.412;24.612;2023-01-26T01:09:11;100930.94;;;0.46;100.00
11672;BME280;5892;43.412;24.612;2023-01-26T01:11:38;100929.59;;;0.37;100.00
11672;BME280;5892;43.412;24.612;2023-01-26T01:14:05;100939.25;;;0.45;100.00
11672;BME280;5892;43.412;24.612;2023-01-26T01:16:32;100928.69;;;0.43;100.00
11672;BME280;5892;43.412;24.612;2023-01-26T01:18:59;100925.03;;;0.37;100.00
11672;BME280;5892;43.412;24.612;2023-01-26T01:21:27;100948.66;;;0.54;100.00
11672;BME280;5892;43.412;24.612;2023-01-26T01:23:54;100935.03;;;0.49;100.00
11672;BME280;5892;43.412;24.612;2023-01-26T01:26:21;100931.91;;;0.52;100.00
11672;BME280;5892;43.412;24.612;2023-01-26T01:28:51;100944.72;;;0.38;100.00
11672;BME280;5892;43.412;24.612;2023-01-26T01:31:20;100794.84;;;-0.53;100.00
11672;BME280;5892;43.412;24.612;2023-01-26T01:33:54;100934.19;;;0.36;100.00
11672;BME280;5892;43.412;24.612;2023-01-26T01:36:21;100875.56;;;0.02;100.00
11672;BME280;5892;43.412;24.612;2023-01-26T01:42:07;100939.59;;;0.48;100.00
11672;BME280;5892;43.412;24.612;2023-01-26T01:44:35;100925.06;;;0.49;100.00
11672;BME280;5892;43.412;24.612;2023-01-26T01:47:04;100919.34;;;0.46;100.00
11672;BME280;5892;43.412;24.612;2023-01-26T01:49:35;100900.75;;;0.37;100.00
11672;BME280;5892;43.412;24.612;2023-01-26T01:52:05;100910.78;;;0.49;100.00
11672;BME280;5892;43.412;24.612;2023-01-26T01:54:37;100890.38;;;0.41;100.00
11672;BME280;5892;43.412;24.612;2023-01-26T01:57:10;100896.81;;;0.40;100.00
11672;BME280;5892;43.412;24.612;2023-01-26T01:59:44;100894.25;;;0.45;100.00
11672;BME280;5892;43.412;24.612;2023-01-26T02:02:12;100901.03;;;0.48;100.00
11672;BME280;5892;43.412;24.612;2023-01-26T02:04:40;100904.81;;;0.47;100.00
11672;BME280;5892;43.412;24.612;2023-01-26T02:07:08;100884.28;;;0.46;100.00
11672;BME280;5892;43.412;24.612;2023-01-26T02:09:37;100844.03;;;0.32;100.00
11672;BME280;5892;43.412;24.612;2023-01-26T02:12:27;100879.94;;;0.45;100.00
11672;BME280;5892;43.412;24.612;2023-01-26T02:14:56;100873.16;;;0.54;100.00
11672;BME280;5892;43.412;24.612;2023-01-26T02:17:23;100867.41;;;0.50;100.00
11672;BME280;5892;43.412;24.612;2023-01-26T02:19:57;100870.00;;;0.57;100.00
11672;BME280;5892;43.412;24.612;2023-01-26T02:22:37;100875.72;;;0.49;100.00
11672;BME280;5892;43.412;24.612;2023-01-26T02:25:15;100868.22;;;0.51;100.00
11672;BME280;5892;43.412;24.612;2023-01-26T02:27:46;100868.72;;;0.59;100.00
11672;BME280;5892;43.412;24.612;2023-01-26T02:30:14;100903.16;;;0.46;100.00
11672;BME280;5892;43.412;24.612;2023-01-26T02:32:41;100872.72;;;0.57;100.00
11672;BME280;5892;43.412;24.612;2023-01-26T02:35:08;100861.53;;;0.53;100.00
11672;BME280;5892;43.412;24.612;2023-01-26T02:37:35;100841.31;;;0.32;100.00
11672;BME280;5892;43.412;24.612;2023-01-26T02:40:08;100867.75;;;0.54;100.00
11672;BME280;5892;43.412;24.612;2023-01-26T02:42:39;100873.53;;;0.57;100.00
11672;BME280;5892;43.412;24.612;2023-01-26T02:45:11;100858.38;;;0.45;100.00
11672;BME280;5892;43.412;24.612;2023-01-26T02:47:39;100860.50;;;0.54;100.00
11672;BME280;5892;43.412;24.612;2023-01-26T02:50:08;100847.97;;;0.60;100.00
11672;BME280;5892;43.412;24.612;2023-01-26T02:52:34;100861.66;;;0.58;100.00
11672;BME280;5892;43.412;24.612;2023-01-26T02:55:01;100854.53;;;0.64;100.00
11672;BME280;5892;43.412;24.612;2023-01-26T02:57:46;100846.09;;;0.60;100.00
11672;BME280;5892;43.412;24.612;2023-01-26T03:00:16;100853.13;;;0.61;100.00
11672;BME280;5892;43.412;24.612;2023-01-26T03:02:44;100856.97;;;0.54;100.00
11672;BME280;5892;43.412;24.612;2023-01-26T03:05:12;100845.25;;;0.60;100.00
11672;BME280;5892;43.412;24.612;2023-01-26T03:07:39;100830.47;;;0.51;100.00
11672;BME280;5892;43.412;24.612;2023-01-26T03:10:07;100825.78;;;0.58;100.00
11672;BME280;5892;43.412;24.612;2023-01-26T03:12:34;100831.31;;;0.51;100.00
11672;BME280;5892;43.412;24.612;2023-01-26T03:15:01;100818.03;;;0.50;100.00
11672;BME280;5892;43.412;24.612;2023-01-26T03:17:47;100810.91;;;0.55;100.00
11672;BME280;5892;43.412;24.612;2023-01-26T03:20:14;100821.00;;;0.60;100.00
11672;BME280;5892;43.412;24.612;2023-01-26T03:22:58;100814.56;;;0.61;100.00
11672;BME280;5892;43.412;24.612;2023-01-26T03:25:43;100819.34;;;0.59;100.00
11672;BME280;5892;43.412;24.612;2023-01-26T03:28:42;100808.22;;;0.55;100.00
11672;BME280;5892;43.412;24.612;2023-01-26T03:31:08;100816.53;;;0.54;100.00
11672;BME280;5892;43.412;24.612;2023-01-26T03:33:37;100809.72;;;0.51;100.00
11672;BME280;5892;43.412;24.612;2023-01-26T03:36:04;100810.09;;;0.55;100.00
11672;BME280;5892;43.412;24.612;2023-01-26T03:38:31;100786.88;;;0.54;100.00
11672;BME280;5892;43.412;24.612;2023-01-26T03:40:58;100687.75;;;-0.09;100.00
11672;BME280;5892;43.412;24.612;2023-01-26T03:43:42;100786.88;;;0.54;100.00
11672;BME280;5892;43.412;24.612;2023-01-26T03:46:26;100815.22;;;0.45;100.00
11672;BME280;5892;43.412;24.612;2023-01-26T03:49:12;100762.00;;;0.40;100.00
11672;BME280;5892;43.412;24.612;2023-01-26T03:51:56;100774.44;;;0.53;100.00
11672;BME280;5892;43.412;24.612;2023-01-26T03:54:40;100739.97;;;0.31;100.00
11672;BME280;5892;43.412;24.612;2023-01-26T03:57:27;100771.41;;;0.61;100.00
11672;BME280;5892;43.412;24.612;2023-01-26T03:59:54;100767.16;;;0.53;100.00
11672;BME280;5892;43.412;24.612;2023-01-26T04:02:21;100775.03;;;0.55;100.00
11672;BME280;5892;43.412;24.612;2023-01-26T04:05:07;100772.69;;;0.58;100.00
11672;BME280;5892;43.412;24.612;2023-01-26T04:07:51;100642.19;;;-0.22;100.00
11672;BME280;5892;43.412;24.612;2023-01-26T04:10:36;100770.22;;;0.57;100.00
11672;BME280;5892;43.412;24.612;2023-01-26T04:13:04;100770.69;;;0.54;100.00
11672;BME280;5892;43.412;24.612;2023-01-26T04:15:48;100762.72;;;0.47;100.00
11672;BME280;5892;43.412;24.612;2023-01-26T04:18:33;100763.66;;;0.41;100.00
11672;BME280;5892;43.412;24.612;2023-01-26T04:21:19;100764.59;;;0.47;100.00
11672;BME280;5892;43.412;24.612;2023-01-26T04:23:57;100758.63;;;0.56;100.00
11672;BME280;5892;43.412;24.612;2023-01-26T04:26:24;100735.50;;;0.49;100.00
11672;BME280;5892;43.412;24.612;2023-01-26T04:28:52;100729.06;;;0.38;100.00
11672;BME280;5892;43.412;24.612;2023-01-26T04:31:20;100758.13;;;0.59;100.00
11672;BME280;5892;43.412;24.612;2023-01-26T04:33:47;100754.16;;;0.50;100.00
11672;BME280;5892;43.412;24.612;2023-01-26T04:36:14;100759.22;;;0.47;100.00
11672;BME280;5892;43.412;24.612;2023-01-26T04:38:42;100749.69;;;0.32;100.00
11672;BME280;5892;43.412;24.612;2023-01-26T04:41:08;100752.03;;;0.40;100.00
11672;BME280;5892;43.412;24.612;2023-01-26T04:43:36;100746.06;;;0.38;100.00
11672;BME280;5892;43.412;24.612;2023-01-26T04:46:04;100740.44;;;0.40;100.00
11672;BME280;5892;43.412;24.612;2023-01-26T04:48:31;100727.31;;;0.43;100.00
11672;BME280;5892;43.412;24.612;2023-01-26T04:51:00;100741.03;;;0.54;100.00
11672;BME280;5892;43.412;24.612;2023-01-26T04:53:27;100735.41;;;0.55;100.00
11672;BME280;5892;43.412;24.612;2023-01-26T04:55:59;100723.56;;;0.45;100.00
11672;BME280;5892;43.412;24.612;2023-01-26T04:58:26;100720.25;;;0.42;100.00
11672;BME280;5892;43.412;24.612;2023-01-26T05:00:54;100721.69;;;0.57;100.00
11672;BME280;5892;43.412;24.612;2023-01-26T05:03:21;100710.91;;;0.57;100.00
11672;BME280;5892;43.412;24.612;2023-01-26T05:05:49;100686.03;;;0.43;100.00
11672;BME280;5892;43.412;24.612;2023-01-26T05:08:17;100711.13;;;0.55;100.00
11672;BME280;5892;43.412;24.612;2023-01-26T05:10:45;100647.38;;;0.14;100.00
11672;BME280;5892;43.412;24.612;2023-01-26T05:13:14;100690.25;;;0.27;100.00
11672;BME280;5892;43.412;24.612;2023-01-26T05:15:40;100689.91;;;0.24;100.00
11672;BME280;5892;43.412;24.612;2023-01-26T05:18:09;100682.41;;;0.26;100.00
11672;BME280;5892;43.412;24.612;2023-01-26T05:20:36;100710.69;;;0.47;100.00
11672;BME280;5892;43.412;24.612;2023-01-26T05:23:03;100699.78;;;0.41;100.00
11672;BME280;5892;43.412;24.612;2023-01-26T05:25:30;100707.97;;;0.47;100.00
11672;BME280;5892;43.412;24.612;2023-01-26T05:27:57;100670.34;;;0.28;100.00
11672;BME280;5892;43.412;24.612;2023-01-26T05:30:26;100658.63;;;0.34;100.00
11672;BME280;5892;43.412;24.612;2023-01-26T05:32:53;100691.19;;;0.45;100.00
11672;BME280;5892;43.412;24.612;2023-01-26T05:35:20;100697.53;;;0.38;100.00
11672;BME280;5892;43.412;24.612;2023-01-26T05:37:46;100690.50;;;0.37;100.00
11672;BME280;5892;43.412;24.612;2023-01-26T05:40:13;100631.41;;;0.01;100.00
11672;BME280;5892;43.412;24.612;2023-01-26T05:42:41;100674.78;;;0.34;100.00
11672;BME280;5892;43.412;24.612;2023-01-26T05:45:10;100676.66;;;0.34;100.00
11672;BME280;5892;43.412;24.612;2023-01-26T05:47:42;100661.09;;;0.36;100.00
11672;BME280;5892;43.412;24.612;2023-01-26T05:50:12;100654.28;;;0.33;100.00
11672;BME280;5892;43.412;24.612;2023-01-26T05:52:39;100655.09;;;0.46;100.00
11672;BME280;5892;43.412;24.612;2023-01-26T05:55:06;100659.69;;;0.45;100.00
11672;BME280;5892;43.412;24.612;2023-01-26T05:57:33;100654.63;;;0.49;100.00
11672;BME280;5892;43.412;24.612;2023-01-26T06:00:03;100603.66;;;0.24;100.00
11672;BME280;5892;43.412;24.612;2023-01-26T06:02:30;100677.00;;;0.49;100.00
11672;BME280;5892;43.412;24.612;2023-01-26T06:04:59;100673.84;;;0.29;100.00
11672;BME280;5892;43.412;24.612;2023-01-26T06:07:25;100658.63;;;0.34;100.00
11672;BME280;5892;43.412;24.612;2023-01-26T06:09:52;100661.31;;;0.23;100.00
11672;BME280;5892;43.412;24.612;2023-01-26T06:12:20;100614.56;;;-0.06;100.00
11672;BME280;5892;43.412;24.612;2023-01-26T06:14:47;100661.09;;;0.24;100.00
11672;BME280;5892;43.412;24.612;2023-01-26T06:17:15;100662.84;;;0.30;100.00
11672;BME280;5892;43.412;24.612;2023-01-26T06:19:42;100666.34;;;0.42;100.00
11672;BME280;5892;43.412;24.612;2023-01-26T06:22:12;100675.50;;;0.41;100.00
11672;BME280;5892;43.412;24.612;2023-01-26T06:24:40;100670.56;;;0.38;100.00
11672;BME280;5892;43.412;24.612;2023-01-26T06:27:11;100663.09;;;0.40;100.00
11672;BME280;5892;43.412;24.612;2023-01-26T06:29:38;100677.00;;;0.49;100.00
11672;BME280;5892;43.412;24.612;2023-01-26T06:32:06;100672.09;;;0.46;100.00
11672;BME280;5892;43.412;24.612;2023-01-26T06:34:33;100661.88;;;0.48;100.00
11672;BME280;5892;43.412;24.612;2023-01-26T06:37:00;100667.06;;;0.50;100.00
11672;BME280;5892;43.412;24.612;2023-01-26T06:39:28;100580.13;;;-0.04;100.00
11672;BME280;5892;43.412;24.612;2023-01-26T06:41:55;100658.25;;;0.54;100.00
11672;BME280;5892;43.412;24.612;2023-01-26T06:44:22;100650.16;;;0.42;100.00
11672;BME280;5892;43.412;24.612;2023-01-26T06:46:49;100660.22;;;0.59;100.00
11672;BME280;5892;43.412;24.612;2023-01-26T06:49:16;100580.94;;;-0.04;100.00
11672;BME280;5892;43.412;24.612;2023-01-26T06:51:52;100659.78;;;0.62;100.00
11672;BME280;5892;43.412;24.612;2023-01-26T06:54:20;100630.94;;;0.51;100.00
11672;BME280;5892;43.412;24.612;2023-01-26T06:56:48;100671.84;;;0.71;100.00
11672;BME280;5892;43.412;24.612;2023-01-26T06:59:16;100663.25;;;0.74;100.00
11672;BME280;5892;43.412;24.612;2023-01-26T07:01:44;100629.63;;;0.65;100.00
11672;BME280;5892;43.412;24.612;2023-01-26T07:04:12;100659.50;;;0.75;100.00
11672;BME280;5892;43.412;24.612;2023-01-26T07:06:38;100650.38;;;0.76;100.00
11672;BME280;5892;43.412;24.612;2023-01-26T07:09:08;100517.38;;;-0.16;100.00
11672;BME280;5892;43.412;24.612;2023-01-26T07:11:36;100649.94;;;0.67;100.00
11672;BME280;5892;43.412;24.612;2023-01-26T07:14:06;100604.00;;;0.39;100.00
11672;BME280;5892;43.412;24.612;2023-01-26T07:16:33;100546.16;;;-0.05;100.00
11672;BME280;5892;43.412;24.612;2023-01-26T07:19:01;100616.97;;;0.54;100.00
11672;BME280;5892;43.412;24.612;2023-01-26T07:21:29;100514.31;;;-0.20;100.00
11672;BME280;5892;43.412;24.612;2023-01-26T07:23:56;100639.38;;;0.54;100.00
11672;BME280;5892;43.412;24.612;2023-01-26T07:26:23;100610.19;;;0.51;100.00
11672;BME280;5892;43.412;24.612;2023-01-26T07:28:49;100615.22;;;0.59;100.00
11672;BME280;5892;43.412;24.612;2023-01-26T07:31:18;100623.53;;;0.69;100.00
11672;BME280;5892;43.412;24.612;2023-01-26T07:33:45;100567.91;;;0.28;100.00
11672;BME280;5892;43.412;24.612;2023-01-26T07:36:12;100607.81;;;0.66;100.00
11672;BME280;5892;43.412;24.612;2023-01-26T07:38:39;100627.97;;;0.64;100.00
11672;BME280;5892;43.412;24.612;2023-01-26T07:41:08;100611.44;;;0.72;100.00
11672;BME280;5892;43.412;24.612;2023-01-26T07:43:37;100597.69;;;0.73;100.00
11672;BME280;5892;43.412;24.612;2023-01-26T07:46:04;100605.66;;;0.80;100.00
11672;BME280;5892;43.412;24.612;2023-01-26T07:48:32;100598.28;;;0.87;100.00
11672;BME280;5892;43.412;24.612;2023-01-26T07:51:01;100569.56;;;0.69;100.00
11672;BME280;5892;43.412;24.612;2023-01-26T07:53:28;100613.13;;;0.90;100.00
11672;BME280;5892;43.412;24.612;2023-01-26T07:56:06;100509.03;;;0.09;100.00
11672;BME280;5892;43.412;24.612;2023-01-26T07:58:33;100584.28;;;0.50;100.00
11672;BME280;5892;43.412;24.612;2023-01-26T08:01:06;100598.09;;;0.54;100.00
11672;BME280;5892;43.412;24.612;2023-01-26T08:03:34;100587.53;;;0.64;100.00
11672;BME280;5892;43.412;24.612;2023-01-26T08:06:01;100597.38;;;0.70;100.00
11672;BME280;5892;43.412;24.612;2023-01-26T08:08:28;100586.25;;;0.66;100.00
11672;BME280;5892;43.412;24.612;2023-01-26T08:10:56;100599.63;;;0.61;100.00
11672;BME280;5892;43.412;24.612;2023-01-26T08:13:25;100562.63;;;0.33;100.00
11672;BME280;5892;43.412;24.612;2023-01-26T08:15:52;100584.53;;;0.49;100.00
11672;BME280;5892;43.412;24.612;2023-01-26T08:18:19;100598.56;;;0.62;100.00
11672;BME280;5892;43.412;24.612;2023-01-26T08:20:52;100599.72;;;0.78;100.00
11672;BME280;5892;43.412;24.612;2023-01-26T08:23:20;100577.44;;;0.71;100.00
11672;BME280;5892;43.412;24.612;2023-01-26T08:25:47;100576.00;;;0.80;100.00
11672;BME280;5892;43.412;24.612;2023-01-26T08:28:14;100587.59;;;0.80;100.00
11672;BME280;5892;43.412;24.612;2023-01-26T08:30:41;100581.88;;;0.77;100.00
11672;BME280;5892;43.412;24.612;2023-01-26T08:33:08;100573.06;;;0.81;100.00
11672;BME280;5892;43.412;24.612;2023-01-26T08:35:34;100566.94;;;0.86;100.00
11672;BME280;5892;43.412;24.612;2023-01-26T08:38:04;100550.53;;;0.88;100.00
11672;BME280;5892;43.412;24.612;2023-01-26T08:40:31;100560.25;;;0.89;100.00
11672;BME280;5892;43.412;24.612;2023-01-26T08:43:01;100547.47;;;0.84;100.00
11672;BME280;5892;43.412;24.612;2023-01-26T08:45:28;100532.56;;;0.93;100.00
11672;BME280;5892;43.412;24.612;2023-01-26T08:47:55;100513.81;;;0.87;100.00
11672;BME280;5892;43.412;24.612;2023-01-26T08:50:23;100561.56;;;1.14;100.00
11672;BME280;5892;43.412;24.612;2023-01-26T08:52:50;100571.84;;;1.17;100.00
11672;BME280;5892;43.412;24.612;2023-01-26T08:55:18;100562.19;;;1.21;100.00
11672;BME280;5892;43.412;24.612;2023-01-26T08:57:48;100566.69;;;1.16;100.00
11672;BME280;5892;43.412;24.612;2023-01-26T09:00:20;100524.06;;;1.01;100.00
11672;BME280;5892;43.412;24.612;2023-01-26T09:02:47;100546.69;;;1.28;100.00
11672;BME280;5892;43.412;24.612;2023-01-26T09:05:14;100545.72;;;1.35;100.00
11672;BME280;5892;43.412;24.612;2023-01-26T09:07:41;100543.91;;;1.23;100.00
11672;BME280;5892;43.412;24.612;2023-01-26T09:10:09;100542.94;;;1.30;100.00
11672;BME280;5892;43.412;24.612;2023-01-26T09:12:38;100542.75;;;1.19;100.00
11672;BME280;5892;43.412;24.612;2023-01-26T09:15:06;100536.28;;;1.20;100.00
11672;BME280;5892;43.412;24.612;2023-01-26T09:17:33;100536.47;;;1.31;100.00
11672;BME280;5892;43.412;24.612;2023-01-26T09:20:00;100545.22;;;1.38;100.00
11672;BME280;5892;43.412;24.612;2023-01-26T09:22:27;100514.34;;;1.17;100.00
11672;BME280;5892;43.412;24.612;2023-01-26T09:24:55;100488.75;;;1.03;100.00
11672;BME280;5892;43.412;24.612;2023-01-26T09:27:22;100546.50;;;1.18;100.00
11672;BME280;5892;43.412;24.612;2023-01-26T09:29:51;100519.91;;;1.10;100.00
11672;BME280;5892;43.412;24.612;2023-01-26T09:32:18;100501.16;;;0.87;100.00
11672;BME280;5892;43.412;24.612;2023-01-26T09:34:45;100512.44;;;1.01;100.00
11672;BME280;5892;43.412;24.612;2023-01-26T09:37:12;100514.22;;;0.95;100.00
11672;BME280;5892;43.412;24.612;2023-01-26T09:39:40;100508.75;;;0.90;100.00
11672;BME280;5892;43.412;24.612;2023-01-26T09:42:27;100514.88;;;0.85;100.00
11672;BME280;5892;43.412;24.612;2023-01-26T09:45:07;100455.00;;;0.72;100.00
11672;BME280;5892;43.412;24.612;2023-01-26T09:47:47;100457.63;;;0.67;100.00
11672;BME280;5892;43.412;24.612;2023-01-26T09:50:22;100455.16;;;0.65;100.00
11672;BME280;5892;43.412;24.612;2023-01-26T09:52:52;100486.78;;;0.98;100.00
11672;BME280;5892;43.412;24.612;2023-01-26T09:55:21;100486.13;;;0.63;100.00
11672;BME280;5892;43.412;24.612;2023-01-26T09:57:54;100471.00;;;0.62;100.00
11672;BME280;5892;43.412;24.612;2023-01-26T10:00:27;100482.63;;;0.79;100.00
11672;BME280;5892;43.412;24.612;2023-01-26T10:03:04;100440.16;;;0.58;100.00
11672;BME280;5892;43.412;24.612;2023-01-26T10:05:40;100488.56;;;0.93;100.00
11672;BME280;5892;43.412;24.612;2023-01-26T10:08:11;100479.16;;;0.95;100.00
11672;BME280;5892;43.412;24.612;2023-01-26T10:10:42;100480.88;;;1.01;100.00
11672;BME280;5892;43.412;24.612;2023-01-26T10:13:13;100442.53;;;0.82;100.00
11672;BME280;5892;43.412;24.612;2023-01-26T10:15:43;100464.63;;;1.13;100.00
11672;BME280;5892;43.412;24.612;2023-01-26T10:18:17;100456.38;;;1.03;100.00
11672;BME280;5892;43.412;24.612;2023-01-26T10:20:48;100453.84;;;1.13;100.00
11672;BME280;5892;43.412;24.612;2023-01-26T10:23:20;100445.41;;;1.09;100.00
11672;BME280;5892;43.412;24.612;2023-01-26T10:25:48;100439.69;;;1.22;100.00
11672;BME280;5892;43.412;24.612;2023-01-26T10:28:18;100429.53;;;1.13;100.00
11672;BME280;5892;43.412;24.612;2023-01-26T10:30:47;100444.34;;;1.27;100.00
11672;BME280;5892;43.412;24.612;2023-01-26T10:33:18;100436.59;;;1.31;100.00
11672;BME280;5892;43.412;24.612;2023-01-26T10:35:46;100419.38;;;1.37;100.00
11672;BME280;5892;43.412;24.612;2023-01-26T10:38:26;100415.06;;;1.36;100.00
11672;BME280;5892;43.412;24.612;2023-01-26T10:40:53;100405.81;;;1.32;100.00
11672;BME280;5892;43.412;24.612;2023-01-26T10:43:20;100401.88;;;1.22;100.00
11672;BME280;5892;43.412;24.612;2023-01-26T10:45:48;100398.59;;;1.20;100.00
11672;BME280;5892;43.412;24.612;2023-01-26T10:48:18;100385.28;;;1.31;100.00
11672;BME280;5892;43.412;24.612;2023-01-26T10:50:46;100398.78;;;1.31;100.00
11672;BME280;5892;43.412;24.612;2023-01-26T10:53:15;100397.63;;;1.26;100.00
11672;BME280;5892;43.412;24.612;2023-01-26T10:55:58;100381.84;;;1.35;100.00
11672;BME280;5892;43.412;24.612;2023-01-26T10:58:44;100381.09;;;1.40;100.00
11672;BME280;5892;43.412;24.612;2023-01-26T11:01:15;100382.97;;;1.39;100.00
11672;BME280;5892;43.412;24.612;2023-01-26T11:03:58;100379.16;;;1.35;100.00
11672;BME280;5892;43.412;24.612;2023-01-26T11:06:27;100377.00;;;1.37;100.00
11672;BME280;5892;43.412;24.612;2023-01-26T11:09:08;100379.03;;;1.47;100.00
11672;BME280;5892;43.412;24.612;2023-01-26T11:11:35;100357.84;;;1.39;100.00
11672;BME280;5892;43.412;24.612;2023-01-26T11:14:15;100360.47;;;1.34;100.00
11672;BME280;5892;43.412;24.612;2023-01-26T11:16:46;100362.19;;;1.40;100.00
11672;BME280;5892;43.412;24.612;2023-01-26T11:19:25;100347.38;;;1.42;100.00
11672;BME280;5892;43.412;24.612;2023-01-26T11:21:58;100233.22;;;0.65;100.00
11672;BME280;5892;43.412;24.612;2023-01-26T11:24:33;100296.72;;;1.11;100.00
11672;BME280;5892;43.412;24.612;2023-01-26T11:27:21;100309.81;;;1.19;100.00
11672;BME280;5892;43.412;24.612;2023-01-26T11:30:17;100281.03;;;1.08;100.00
11672;BME280;5892;43.412;24.612;2023-01-26T11:32:55;100322.81;;;1.44;100.00
11672;BME280;5892;43.412;24.612;2023-01-26T11:35:29;100252.59;;;1.00;100.00
11672;BME280;5892;43.412;24.612;2023-01-26T11:38:08;100308.13;;;1.35;100.00
11672;BME280;5892;43.412;24.612;2023-01-26T11:40:47;100302.47;;;1.36;100.00
11672;BME280;5892;43.412;24.612;2023-01-26T11:43:35;100293.88;;;1.39;100.00
11672;BME280;5892;43.412;24.612;2023-01-26T11:46:30;100232.56;;;0.96;100.00
11672;BME280;5892;43.412;24.612;2023-01-26T11:49:12;100283.63;;;1.19;100.00
11672;BME280;5892;43.412;24.612;2023-01-26T11:51:51;100278.53;;;1.23;100.00
11672;BME280;5892;43.412;24.612;2023-01-26T11:54:36;100268.56;;;1.23;100.00
11672;BME280;5892;43.412;24.612;2023-01-26T11:57:13;100268.19;;;1.37;100.00
11672;BME280;5892;43.412;24.612;2023-01-26T11:59:46;100254.25;;;1.23;100.00
11672;BME280;5892;43.412;24.612;2023-01-26T12:02:25;100274.28;;;1.27;100.00
11672;BME280;5892;43.412;24.612;2023-01-26T12:04:56;100236.19;;;1.23;100.00
11672;BME280;5892;43.412;24.612;2023-01-26T12:07:28;100260.34;;;1.35;100.00
11672;BME280;5892;43.412;24.612;2023-01-26T12:09:57;100254.13;;;1.35;100.00
11672;BME280;5892;43.412;24.612;2023-01-26T12:12:31;100243.69;;;1.43;100.00
11672;BME280;5892;43.412;24.612;2023-01-26T12:15:04;100239.69;;;1.46;100.00
11672;BME280;5892;43.412;24.612;2023-01-26T12:17:44;100188.91;;;1.21;100.00
11672;BME280;5892;43.412;24.612;2023-01-26T12:20:24;100232.13;;;1.48;100.00
11672;BME280;5892;43.412;24.612;2023-01-26T12:22:59;100234.41;;;1.56;100.00
11672;BME280;5892;43.412;24.612;2023-01-26T12:25:31;100226.75;;;1.48;100.00
11672;BME280;5892;43.412;24.612;2023-01-26T12:28:06;100214.47;;;1.35;100.00
11672;BME280;5892;43.412;24.612;2023-01-26T12:30:44;100225.69;;;1.49;100.00
11672;BME280;5892;43.412;24.612;2023-01-26T12:33:14;100207.47;;;1.39;100.00
11672;BME280;5892;43.412;24.612;2023-01-26T12:36:01;100220.22;;;1.44;100.00
11672;BME280;5892;43.412;24.612;2023-01-26T12:38:40;100226.31;;;1.56;100.00
11672;BME280;5892;43.412;24.612;2023-01-26T12:41:13;100194.56;;;1.41;100.00
11672;BME280;5892;43.412;24.612;2023-01-26T12:43:51;100224.16;;;1.58;100.00
11672;BME280;5892;43.412;24.612;2023-01-26T12:46:29;100240.63;;;1.56;100.00
11672;BME280;5892;43.412;24.612;2023-01-26T12:49:01;100231.25;;;1.64;100.00
11672;BME280;5892;43.412;24.612;2023-01-26T12:51:36;100235.00;;;1.63;100.00
11672;BME280;5892;43.412;24.612;2023-01-26T12:54:10;100221.03;;;1.66;100.00
11672;BME280;5892;43.412;24.612;2023-01-26T12:56:43;100224.22;;;1.63;100.00
11672;BME280;5892;43.412;24.612;2023-01-26T12:59:14;100228.66;;;1.74;100.00
11672;BME280;5892;43.412;24.612;2023-01-26T13:01:44;100213.00;;;1.76;100.00
11672;BME280;5892;43.412;24.612;2023-01-26T13:04:12;100213.13;;;1.86;100.00
11672;BME280;5892;43.412;24.612;2023-01-26T13:06:42;100208.72;;;1.80;100.00
11672;BME280;5892;43.412;24.612;2023-01-26T13:09:21;100206.78;;;1.76;100.00
11672;BME280;5892;43.412;24.612;2023-01-26T13:11:50;100206.31;;;1.84;100.00